Tiempo atmosférico en la estación meteorológica de Barcelona, Barcelona (25 m.)



Fecha
DESCASC
Temp. máxima en grados centígrados (hora)
DESCASC
Temp. mínima en grados centígrados (hora)
DESCASC
Temp. media en grados centígrados
DESCASC
Racha de viento máxima en m/sg (hora)
DESCASC
Velocidad máxima media en intervalos de 10 minutos(hora)
DESCASC
Precipitaciones diarias en mm
DESCASC
Precipitaciones de 00:00 a 06:00 en mm
DESCASC
Precipitaciones de 06:00 a 12:00 en mm
DESCASC
Precipitaciones de 12:00 a 18:00 en mm
DESCASC
Precipitaciones de 18:00 a 24:00 en mm
DESCASC
18-01-2018 14.5 (15:20) 9.6 (08:00) 12.1 6.94 (16:10) 3.89 (15:30) 0.1 0.1 0 0 0
17-01-2018 16.5 (15:50) 11.7 (23:40) 14.1 16.39 (04:20) 7.5 (04:00) 1.3 0 0 0 1.3
16-01-2018 17.1 (15:40) 9.4 (05:30) 13.3 11.94 (22:40) 6.11 (09:50) 0 0 0 0 0
15-01-2018 12.8 (13:00) 6.4 (06:10) 9.6 9.72 (19:00) 5 (17:00) 0 0 0 0 0
14-01-2018 12.9 (00:20) 8.3 (00:00) 10.6 11.67 (00:40) 5.83 (00:50) 2.4 2.4 0 0 0
13-01-2018 13.8 (14:20) 4.5 (00:00) 9.2 11.94 (20:00) 9.44 (20:00) 3.5 0 0 0 3.5
12-01-2018 13.6 (15:30) 6 (00:00) 9.8 7.5 (07:00) 4.17 (01:00) 0 0 0 0 0
11-01-2018 13.8 (14:50) 8.7 (00:00) 11.3 8.61 (11:20) 4.72 (15:10) 0 0 0 0 0
10-01-2018 -- (--) -- (--) -- -- (--) -- (--) 0 0 0 0 0
09-01-2018 14.4 (14:40) 6.6 (00:00) 10.5 9.44 (08:30) 4.72 (21:10) 0 0 0 0 0
08-01-2018 14.5 (16:00) 7 (00:00) 10.8 6.39 (11:30) 3.33 (07:10) 0 0 0 0 0
07-01-2018 15.1 (03:30) 9.1 (00:00) 12.1 15 (10:10) 10 (10:20) 5 0.4 0.9 3.7 0
06-01-2018 14.9 (12:30) 10 (00:00) 12.4 18.89 (19:10) 14.72 (19:10) 0 0 0 0 0
05-01-2018 19.2 (14:40) 14 (00:00) 16.6 13.33 (10:50) 7.5 (10:20) 0 0 0 0 0
04-01-2018 21.9 (15:50) 17 (23:59) 19.4 20 (05:20) 9.17 (01:10) 0 0 0 0 0
03-01-2018 21.8 (16:00) 14 (00:00) 17.9 17.78 (23:40) 10.28 (23:40) 0 0 0 0 0
02-01-2018 17.8 (15:30) 11.4 (00:00) 14.6 10.28 (08:50) 5.56 (08:10) 0 0 0 0 0
01-01-2018 15.5 (20:30) 10.2 (00:00) 12.8 18.06 (11:30) 8.61 (11:50) 0 0 0 0 0
31-12-2017 18.8 (14:00) 10.5 (00:00) 14.6 15.56 (23:59) 5.56 (18:20) 0 0 0 0 0
30-12-2017 20.3 (15:10) 11.5 (00:00) 15.9 10.83 (08:50) 5.28 (08:50) 0 0 0 0 0
29-12-2017 14.4 (16:00) 6.5 (00:00) 10.4 8.89 (15:20) 4.17 (13:40) 0 0 0 0 0
28-12-2017 12.7 (16:30) 6.9 (00:00) 9.8 13.89 (02:20) 7.5 (02:40) 0 0 0 0 0
27-12-2017 13.8 (16:00) 7.6 (00:00) 10.7 23.33 (14:30) 11.11 (14:20) 1.1 1 0.1 0 0
26-12-2017 15.2 (13:10) 9.6 (00:00) 12.4 9.17 (16:40) 5.56 (16:40) 0 0 0 0 0
25-12-2017 15.1 (15:30) 7.9 (00:00) 11.5 7.22 (15:40) 3.33 (16:50) 0 0 0 0 0
24-12-2017 15.5 (15:30) 7.7 (00:00) 11.6 6.11 (14:00) 3.61 (13:30) 0 0 0 0 0
23-12-2017 15.4 (14:40) 8.7 (00:00) 12 6.67 (15:30) 4.17 (15:30) 0 0 0 0 0
22-12-2017 16.5 (15:20) 10 (00:00) 13.3 6.67 (20:50) 3.89 (12:20) 0 0 0 0 0

Gráficas

Temp. máximas Temp. mínimas Temp. medias Precipitaciones Rachas de viento máximas Velocidades máximas media en intervalos de 10 minutos

Datos horarios

Fecha y hora oficial Temperatura (ºC) Velocidad del viento (km/h) Dirección del viento Racha (km/h) Dirección de racha Precipitación (mm) Presión (hPa) Tendencia (hPa) Humedad (%)
2018-01-20 23:00:00 15.1 14 Norte 26 Nordeste 0 -- -- 58
2018-01-20 22:00:00 15.8 3 Sudoeste 31 Noroeste 0 -- -- 55
2018-01-20 21:00:00 15.8 15 Noroeste 32 Oeste 0 -- -- 54
2018-01-20 20:00:00 16.1 14 Oeste 36 Noroeste 0 -- -- 50
2018-01-20 19:00:00 15.7 12 Oeste 26 Noroeste 0 -- -- 48
2018-01-20 18:00:00 14.8 9 Oeste 18 Oeste 0 -- -- 59
2018-01-20 17:00:00 15.8 12 Oeste 39 Oeste 0 -- -- 50
2018-01-20 16:00:00 16 15 Noroeste 48 Oeste 0 -- -- 44
2018-01-20 15:00:00 16.1 26 Oeste 46 Oeste 0 -- -- 44
2018-01-20 14:00:00 14.8 12 Sudoeste 25 Sudoeste 0 -- -- 59
2018-01-20 13:00:00 12.9 18 Sudoeste 24 Sudoeste 0 -- -- 60
2018-01-20 12:00:00 12.8 5 Sudoeste 23 Noroeste 0 -- -- 58
2018-01-20 11:00:00 11.4 4 Noroeste 18 Oeste 0 -- -- 62
2018-01-20 10:00:00 10.3 8 Oeste 23 Norte 0 -- -- 66
2018-01-20 09:00:00 9.2 10 Norte 20 Norte 0 -- -- 70
2018-01-20 08:00:00 9 10 Noroeste 20 Noroeste 0 -- -- 70
2018-01-20 07:00:00 9.2 3 Noroeste 8 Oeste 0 -- -- 70
2018-01-20 06:00:00 9.5 0 Calma 8 Norte 0 -- -- 68
2018-01-20 05:00:00 9.5 6 Norte 18 Noroeste 0 -- -- 68
2018-01-20 04:00:00 10.1 7 Noroeste 18 Norte 0 -- -- 66
2018-01-20 03:00:00 10.5 7 Noroeste 14 Noroeste 0 -- -- 69
2018-01-20 02:00:00 10.7 4 Norte 9 Norte 0 -- -- 75
2018-01-20 01:00:00 10.5 8 Norte 13 Norte 0 -- -- 77
2018-01-20 00:00:00 10.7 7 Norte 16 Noroeste 0 -- -- 77
2018-01-19 23:00:00 10.5 9 Norte 31 Norte 0 -- -- 78
2018-01-19 22:00:00 10.6 9 Norte 15 Norte 0 -- -- 78
2018-01-19 21:00:00 11.1 7 Norte 14 Norte 0 -- -- 78
2018-01-19 20:00:00 11.2 5 Nordeste 9 Nordeste 0 -- -- 80
2018-01-19 19:00:00 11.3 2 Noroeste 10 Este 0 -- -- 82
2018-01-19 18:00:00 11.4 8 Este 11 Este 0 -- -- 80
2018-01-19 17:00:00 12.2 10 Este 14 Este 0 -- -- 71
2018-01-19 16:00:00 12 12 Este 15 Este 0 -- -- 71
2018-01-19 15:00:00 12.3 10 Este 16 Este 0 -- -- 66
2018-01-19 14:00:00 12.7 8 Este 13 Este 0 -- -- 62
2018-01-19 13:00:00 11.3 6 Nordeste 12 Nordeste 0 -- -- 62
2018-01-19 12:00:00 10.2 8 Norte 14 Noroeste 0 -- -- 66
2018-01-19 11:00:00 9 8 Norte 15 Norte 0 -- -- 70
2018-01-19 10:00:00 8.2 5 Norte 15 Nordeste 0 -- -- 72
2018-01-19 09:00:00 7.3 3 Norte 15 Norte 0 -- -- 74
2018-01-19 08:00:00 7.3 7 Norte 14 Norte 0 -- -- 74
2018-01-19 07:00:00 7.2 3 Este 17 Norte 0 -- -- 75
2018-01-19 06:00:00 7.5 8 Norte 16 Noroeste 0 -- -- 74
2018-01-19 05:00:00 7.6 8 Norte 15 Norte 0 -- -- 73
2018-01-19 04:00:00 8.2 8 Norte 15 Norte 0 -- -- 70
2018-01-19 03:00:00 9 3 Nordeste 19 Norte 0 -- -- 68
2018-01-19 02:00:00 9.2 6 Norte 14 Norte 0 -- -- 68
2018-01-19 01:00:00 10.4 4 Norte 9 Noroeste 0 -- -- 63
2018-01-19 00:00:00 10.6 2 Oeste 9 Nordeste 0 -- -- 62
2018-01-18 23:00:00 10.8 2 Nordeste 17 Oeste 0 -- -- 61
2018-01-18 22:00:00 11.4 10 Noroeste 17 Noroeste 0 -- -- 59
2018-01-18 21:00:00 11.6 8 Oeste 14 Noroeste 0 -- -- 57
2018-01-18 20:00:00 12.4 8 Noroeste 17 Noroeste 0 -- -- 56
2018-01-18 19:00:00 12.6 6 Oeste 21 Oeste 0 -- -- 66
2018-01-18 18:00:00 12.7 10 Oeste 22 Sudoeste 0 -- -- 62
2018-01-18 17:00:00 13.3 12 Sudoeste 25 Oeste 0 -- -- 59
2018-01-18 16:00:00 14.3 13 Oeste 24 Oeste 0 -- -- 55
2018-01-18 15:00:00 13.9 9 Sudoeste 23 Oeste 0 -- -- 59
2018-01-18 14:00:00 13.3 14 Oeste 23 Oeste 0 -- -- 56
2018-01-18 13:00:00 12.8 12 Noroeste 22 Noroeste 0 -- -- 55
2018-01-18 12:00:00 12.5 6 Norte 21 Noroeste 0 -- -- 55
2018-01-18 11:00:00 12.5 9 Noroeste 14 Noroeste 0 -- -- 56
2018-01-18 10:00:00 12 3 Norte 15 Noroeste 0 -- -- 61
2018-01-18 09:00:00 10.3 4 Noroeste 13 Norte 0 -- -- 66
2018-01-18 08:00:00 9.6 6 Norte 11 Norte 0 -- -- 67
2018-01-18 07:00:00 10.2 6 Norte 14 Norte 0 -- -- 66
2018-01-18 06:00:00 10.5 8 Norte 14 Norte 0 -- -- 66
2018-01-18 05:00:00 11.1 4 Norte 9 Norte 0 -- -- 66
2018-01-18 04:00:00 11.4 2 Norte 11 Noroeste 0 -- -- 66
2018-01-18 03:00:00 11.6 3 Noroeste 15 Norte 0 -- -- 68
2018-01-18 02:00:00 11.5 9 Noroeste 15 Noroeste 0 -- -- 70
2018-01-18 01:00:00 11.3 8 Norte 14 Norte 0.1 -- -- 75
2018-01-18 00:00:00 11.9 4 Norte 8 Norte 0.4 -- -- 80
2018-01-17 23:00:00 12.5 0 Calma 9 Sur 0.8 -- -- 84
2018-01-17 22:00:00 13.1 5 Sudeste 16 Sudeste 0.1 -- -- 80
2018-01-17 21:00:00 13.3 3 Norte 16 Sudoeste 0 -- -- 80
2018-01-17 20:00:00 13.6 4 Sur 18 Oeste 0 -- -- 78
2018-01-17 19:00:00 13.4 9 Sudoeste 16 Sudoeste 0 -- -- 80
2018-01-17 18:00:00 13.5 12 Sur 22 Sur 0 -- -- 81
2018-01-17 17:00:00 14.1 4 Sur 11 Sur 0 -- -- 81
2018-01-17 16:00:00 16.1 7 Este 11 Sudeste 0 -- -- 74
2018-01-17 15:00:00 16.1 8 Este 15 Este 0 -- -- 74
2018-01-17 14:00:00 15.1 13 Este 18 Este 0 -- -- 72
2018-01-17 13:00:00 15 10 Este 18 Este 0 -- -- 67
2018-01-17 12:00:00 14.5 14 Este 28 Este 0 -- -- 68
2018-01-17 11:00:00 15.3 9 Este 32 Norte 0 -- -- 56
2018-01-17 10:00:00 14.5 15 Norte 35 Noroeste 0 -- -- 55
2018-01-17 09:00:00 14.1 14 Este 33 Este 0 -- -- 58
2018-01-17 08:00:00 13.8 10 Norte 45 Noroeste 0 -- -- 60
2018-01-17 07:00:00 14 23 Noroeste 59 Noroeste 0 -- -- 62
2018-01-17 06:00:00 14.1 5 Sudeste 41 Oeste 0 -- -- 62
2018-01-17 05:00:00 14.5 15 Noroeste 59 Noroeste 0 -- -- 62
2018-01-17 04:00:00 14.4 27 Noroeste 55 Noroeste 0 -- -- 62
2018-01-17 03:00:00 14.1 9 Oeste 32 Oeste 0 -- -- 64
2018-01-17 02:00:00 14 12 Oeste 40 Oeste 0 -- -- 63
2018-01-17 01:00:00 14.2 14 Oeste 34 Oeste 0 -- -- 62
2018-01-17 00:00:00 14.6 14 Oeste 37 Noroeste 0 -- -- 60
2018-01-16 23:00:00 14.9 14 Sudoeste 43 Sudoeste 0 -- -- 59
2018-01-16 22:00:00 15.4 15 Oeste 32 Oeste 0 -- -- 59
2018-01-16 21:00:00 15.4 18 Oeste 31 Oeste 0 -- -- 59
2018-01-16 20:00:00 15.4 13 Oeste 28 Oeste 0 -- -- 59
2018-01-16 19:00:00 15.7 13 Noroeste 21 Noroeste 0 -- -- 58
2018-01-16 18:00:00 15.5 4 Norte 13 Norte 0 -- -- 55
2018-01-16 17:00:00 16 5 Norte 18 Nordeste 0 -- -- 53
2018-01-16 16:00:00 16.4 8 Nordeste 26 Norte 0 -- -- 51
2018-01-16 15:00:00 16.1 14 Noroeste 32 Noroeste 0 -- -- 52
2018-01-16 14:00:00 15.2 14 Noroeste 27 Noroeste 0 -- -- 54
2018-01-16 13:00:00 14.3 5 Noroeste 21 Oeste 0 -- -- 53
2018-01-16 12:00:00 13.2 8 Noroeste 36 Norte 0 -- -- 57
2018-01-16 11:00:00 11.6 12 Oeste 40 Oeste 0 -- -- 58
2018-01-16 10:00:00 10.6 22 Oeste 43 Noroeste 0 -- -- 59
2018-01-16 09:00:00 9.6 6 Este 27 Noroeste 0 -- -- 62
2018-01-16 08:00:00 9.5 4 Sudoeste 26 Noroeste 0 -- -- 60
2018-01-16 07:00:00 10 15 Oeste 26 Oeste 0 -- -- 58
2018-01-16 06:00:00 9.5 12 Oeste 23 Oeste 0 -- -- 60
2018-01-16 05:00:00 9.9 13 Oeste 31 Oeste 0 -- -- 59
2018-01-16 04:00:00 10.1 14 Oeste 37 Oeste 0 -- -- 59
2018-01-16 03:00:00 10.1 8 Oeste 18 Noroeste 0 -- -- 59
2018-01-16 02:00:00 10.2 10 Oeste 17 Oeste 0 -- -- 59
2018-01-16 01:00:00 10.1 12 Oeste 24 Oeste 0 -- -- 61
2018-01-16 00:00:00 10.1 14 Oeste 24 Oeste 0 -- -- 61
2018-01-15 23:00:00 10 11 Oeste 22 Oeste 0 -- -- 63
2018-01-15 22:00:00 9.7 8 Oeste 20 Oeste 0 -- -- 65
2018-01-15 21:00:00 9.7 12 Oeste 26 Oeste 0 -- -- 64
2018-01-15 20:00:00 9.7 13 Oeste 33 Noroeste 0 -- -- 64
2018-01-15 19:00:00 9.2 17 Noroeste 35 Oeste 0 -- -- 64
2018-01-15 18:00:00 9.7 11 Noroeste 27 Oeste 0 -- -- 62
2018-01-15 17:00:00 10.2 18 Noroeste 31 Oeste 0 -- -- 61
2018-01-15 16:00:00 12.1 9 Noroeste 23 Noroeste 0 -- -- 57
2018-01-15 15:00:00 11.7 10 Noroeste 22 Oeste 0 -- -- 58
2018-01-15 14:00:00 11.8 10 Oeste 20 Oeste 0 -- -- 58
2018-01-15 13:00:00 11.9 8 Noroeste 18 Oeste 0 -- -- 58
2018-01-15 12:00:00 11.2 7 Norte 17 Noroeste 0 -- -- 61
2018-01-15 11:00:00 9.6 10 Norte 24 Norte 0 -- -- 66
2018-01-15 10:00:00 8.3 13 Norte 28 Noroeste 0 -- -- 70
2018-01-15 09:00:00 7.3 10 Norte 23 Norte 0 -- -- 73
2018-01-15 08:00:00 7.2 10 Norte 21 Noroeste 0 -- -- 73
2018-01-15 07:00:00 6.8 6 Norte 15 Noroeste 0 -- -- 75
2018-01-15 06:00:00 6.7 8 Norte 17 Norte 0 -- -- 74
2018-01-15 05:00:00 7.8 11 Norte 21 Noroeste 0 -- -- 70
2018-01-15 04:00:00 8 8 Norte 17 Noroeste 0 -- -- 70
2018-01-15 03:00:00 8 11 Norte 23 Norte 0 -- -- 70
2018-01-15 02:00:00 8 12 Norte 25 Norte 0 -- -- 70
2018-01-15 01:00:00 8.2 10 Norte 25 Norte 0 -- -- 70
2018-01-15 00:00:00 8.4 9 Norte 21 Norte 0 -- -- 69
2018-01-14 23:00:00 8.8 6 Norte 14 Norte 0 -- -- 68
2018-01-14 22:00:00 8.8 7 Norte 14 Norte 0 -- -- 67
2018-01-14 21:00:00 9.5 6 Norte 13 Noroeste 0 -- -- 66
2018-01-14 20:00:00 9.8 5 Noroeste 12 Norte 0 -- -- 65
2018-01-14 19:00:00 10.1 4 Noroeste 14 Noroeste 0 -- -- 65
2018-01-14 18:00:00 10.5 8 Noroeste 16 Noroeste 0 -- -- 64
2018-01-14 17:00:00 11.3 9 Noroeste 21 Noroeste 0 -- -- 62
2018-01-14 16:00:00 11.7 8 Noroeste 22 Norte 0 -- -- 62
2018-01-14 15:00:00 11.6 13 Noroeste 23 Oeste 0 -- -- 61
2018-01-14 14:00:00 11.5 13 Noroeste 24 Noroeste 0 -- -- 63
2018-01-14 13:00:00 11.3 9 Norte 21 Norte 0 -- -- 66
2018-01-14 12:00:00 10.6 12 Noroeste 23 Noroeste 0 -- -- 69
2018-01-14 11:00:00 9.8 9 Noroeste 18 Noroeste 0 -- -- 71
2018-01-14 10:00:00 9 9 Oeste 18 Noroeste 0 -- -- 73
2018-01-14 09:00:00 8.5 8 Noroeste 19 Noroeste 0 -- -- 76
2018-01-14 08:00:00 8.8 9 Noroeste 23 Noroeste 0 -- -- 76
2018-01-14 07:00:00 9.2 5 Norte 19 Noroeste 0 -- -- 77
2018-01-14 06:00:00 9.4 9 Noroeste 19 Noroeste 0 -- -- 81
2018-01-14 05:00:00 9.2 10 Norte 20 Norte 0 -- -- 92
2018-01-14 04:00:00 9.7 6 Norte 10 Norte 0.3 -- -- 93
2018-01-14 03:00:00 10.1 4 Norte 9 Nordeste 0.1 -- -- 93
2018-01-14 02:00:00 10.3 4 Noroeste 27 Sudoeste 1.2 -- -- 93
2018-01-14 01:00:00 10.7 18 Sudoeste 42 Sudoeste 0.8 -- -- 83
2018-01-14 00:00:00 12.5 13 Sudoeste 28 Sudoeste 0.1 -- -- 80
2018-01-13 23:00:00 11.2 3 Noroeste 20 Oeste 2.7 -- -- 93
2018-01-13 22:00:00 12 9 Oeste 20 Oeste 0.6 -- -- 84
2018-01-13 21:00:00 12.4 7 Oeste 36 Sudoeste 0 -- -- 83
2018-01-13 20:00:00 12.9 34 Sudoeste 43 Sudoeste 0.1 -- -- 81
2018-01-13 19:00:00 13.1 21 Sudoeste 31 Sudoeste 0 -- -- 75
2018-01-13 18:00:00 12.8 14 Sudoeste 23 Sudoeste 0 -- -- 72
2018-01-13 17:00:00 12 0 Calma 7 Sur 0 -- -- 71
2018-01-13 16:00:00 12.2 5 Sur 9 Sudoeste 0 -- -- 70
2018-01-13 15:00:00 12.3 9 Sudoeste 13 Sudoeste 0 -- -- 67
2018-01-13 14:00:00 12.8 3 Sur 7 Sur 0 -- -- 63
2018-01-13 13:00:00 12.6 0 Calma 5 Sudoeste 0 -- -- 61
2018-01-13 12:00:00 10.8 0 Calma 8 Noroeste 0 -- -- 61
2018-01-13 11:00:00 8.2 6 Norte 11 Norte 0 -- -- 66
2018-01-13 10:00:00 7.2 5 Noroeste 15 Norte 0 -- -- 69
2018-01-13 09:00:00 5 11 Norte 17 Norte 0 -- -- 74
2018-01-13 08:00:00 4.7 12 Norte 18 Norte 0 -- -- 75
2018-01-13 07:00:00 5 14 Norte 18 Norte 0 -- -- 74
2018-01-13 06:00:00 5.4 13 Norte 16 Norte 0 -- -- 74
2018-01-13 05:00:00 5.2 13 Norte 17 Norte 0 -- -- 73
2018-01-13 04:00:00 6.4 14 Norte 18 Norte 0 -- -- 70
2018-01-13 03:00:00 6.6 11 Norte 18 Norte 0 -- -- 69
2018-01-13 02:00:00 6.5 10 Norte 15 Norte 0 -- -- 68
2018-01-13 01:00:00 7.4 10 Norte 15 Norte 0 -- -- 66
2018-01-13 00:00:00 7.7 9 Norte 16 Norte 0 -- -- 66
2018-01-12 23:00:00 8.1 10 Norte 13 Norte 0 -- -- 65
2018-01-12 22:00:00 9.5 7 Norte 10 Norte 0 -- -- 61
2018-01-12 21:00:00 10.8 5 Oeste 8 Oeste 0 -- -- 57
2018-01-12 20:00:00 10.7 4 Sudoeste 12 Oeste 0 -- -- 61
2018-01-12 19:00:00 11.1 6 Oeste 9 Sudoeste 0 -- -- 60
2018-01-12 18:00:00 11.1 7 Sudoeste 8 Sudoeste 0 -- -- 64
2018-01-12 17:00:00 11.3 3 Sudoeste 12 Sudeste 0 -- -- 65
2018-01-12 16:00:00 12.8 5 Sur 10 Sudeste 0 -- -- 63
2018-01-12 15:00:00 12.8 5 Este 17 Este 0 -- -- 63
2018-01-12 14:00:00 11.7 14 Este 21 Este 0 -- -- 64
2018-01-12 13:00:00 10.9 8 Norte 16 Nordeste 0 -- -- 59
2018-01-12 12:00:00 10.4 6 Norte 14 Norte 0 -- -- 59
2018-01-12 11:00:00 8.3 9 Norte 23 Norte 0 -- -- 60
2018-01-12 10:00:00 6.8 11 Norte 25 Noroeste 0 -- -- 64
2018-01-12 09:00:00 6.7 4 Nordeste 21 Norte 0 -- -- 64
2018-01-12 08:00:00 6.5 11 Noroeste 21 Norte 0 -- -- 63
2018-01-12 07:00:00 7.3 13 Noroeste 27 Norte 0 -- -- 62
2018-01-12 06:00:00 7.3 4 Noroeste 20 Norte 0 -- -- 62
2018-01-12 05:00:00 7.3 4 Nordeste 23 Noroeste 0 -- -- 62
2018-01-12 04:00:00 7.8 10 Noroeste 23 Norte 0 -- -- 62
2018-01-12 03:00:00 8.1 9 Noroeste 19 Norte 0 -- -- 61
2018-01-12 02:00:00 8.3 9 Noroeste 23 Noroeste 0 -- -- 62
2018-01-12 01:00:00 8.8 15 Noroeste 25 Noroeste 0 -- -- 60
2018-01-12 00:00:00 9.2 12 Noroeste 28 Noroeste 0 -- -- 60
2018-01-11 23:00:00 9.5 12 Noroeste 25 Noroeste 0 -- -- 59
2018-01-11 22:00:00 10 4 Noroeste 15 Norte 0 -- -- 59
2018-01-11 21:00:00 10.2 0 Calma 14 Norte 0 -- -- 58
2018-01-11 20:00:00 11.1 6 Norte 17 Noroeste 0 -- -- 58
2018-01-11 19:00:00 11.2 0 Calma 12 Este 0 -- -- 65
2018-01-11 18:00:00 11.5 5 Este 13 Este 0 -- -- 67
2018-01-11 17:00:00 12 12 Este 21 Este 0 -- -- 67
2018-01-11 16:00:00 12.7 15 Este 22 Este 0 -- -- 61
2018-01-11 15:00:00 13.2 10 Este 28 Noroeste 0 -- -- 59
2018-01-11 14:00:00 13 15 Noroeste 29 Norte 0 -- -- 49
2018-01-11 13:00:00 12.2 13 Noroeste 28 Norte 0 -- -- 49
2018-01-11 12:00:00 11.6 9 Noroeste 31 Noroeste 0 -- -- 52
2018-01-11 11:00:00 10.3 14 Noroeste 28 Noroeste 0 -- -- 55
2018-01-11 10:00:00 9.3 12 Noroeste 23 Norte 0 -- -- 59
2018-01-11 09:00:00 8.8 11 Noroeste 26 Noroeste 0 -- -- 59
2018-01-11 08:00:00 9 0 Calma 23 Norte 0 -- -- 61
2018-01-11 07:00:00 9.2 10 Noroeste 25 Norte 0 -- -- 61
2018-01-11 06:00:00 9.3 9 Noroeste 23 Oeste 0 -- -- 65
2018-01-11 05:00:00 10.4 6 Norte 22 Norte 0 -- -- 64
2018-01-11 04:00:00 10.4 7 Noroeste 24 Noroeste 0 -- -- 63
2018-01-11 03:00:00 10.8 2 Noroeste 30 Noroeste 0 -- -- 62
2018-01-11 02:00:00 11.1 14 Noroeste 27 Noroeste 0 -- -- 61
2018-01-11 01:00:00 11.7 4 Noroeste 13 Oeste 0 -- -- 59
2018-01-11 00:00:00 11.9 6 Oeste 13 Oeste 0 -- -- 58
2018-01-10 23:00:00 12.2 3 Oeste 20 Oeste 0 -- -- 58
2018-01-10 22:00:00 11.5 7 Oeste 23 Oeste 0 -- -- 58
2018-01-10 21:00:00 11.7 8 Oeste 33 Noroeste 0 -- -- 57
2018-01-10 20:00:00 11.5 9 Oeste 28 Sudoeste 0 -- -- 57
2018-01-10 19:00:00 11.7 18 Oeste 42 Oeste 0 -- -- 54
2018-01-10 18:00:00 12.3 20 Oeste 38 Noroeste 0 -- -- 53
2018-01-10 17:00:00 13.3 21 Noroeste 41 Noroeste 0 -- -- 51
2018-01-10 16:00:00 14.1 7 Sudoeste 25 Noroeste 0 -- -- 56
2018-01-10 15:00:00 14.1 12 Noroeste 32 Oeste 0 -- -- 50
2018-01-10 14:00:00 13.2 10 Noroeste 27 Noroeste 20.3 -- -- 51
2018-01-10 13:00:00 -- 12 Noroeste 23 Noroeste 44.6 -- -- --
2018-01-10 12:00:00 11.7 9 Oeste 22 Noroeste 0 -- -- 53
2018-01-10 11:00:00 10.7 13 Noroeste 20 Norte 0 -- -- 56
2018-01-10 10:00:00 9.7 12 Oeste 21 Oeste 0 -- -- 58
2018-01-10 09:00:00 9.2 12 Oeste 26 Oeste 0 -- -- 59
2018-01-10 08:00:00 9.8 8 Noroeste 25 Oeste 0 -- -- 57
2018-01-10 07:00:00 10 7 Oeste 17 Noroeste 0 -- -- 56
2018-01-10 06:00:00 10.1 11 Noroeste 30 Noroeste 0 -- -- 54
2018-01-10 05:00:00 10.6 17 Noroeste 31 Noroeste 0 -- -- 52
2018-01-10 04:00:00 10.6 16 Noroeste 31 Noroeste 0 -- -- 51
2018-01-10 03:00:00 10.8 11 Noroeste 32 Noroeste 0 -- -- 50
2018-01-10 02:00:00 10.6 14 Noroeste 26 Oeste 0 -- -- 49
2018-01-10 01:00:00 11.2 6 Noroeste 21 Noroeste 0 -- -- 47
2018-01-10 00:00:00 11.3 8 Noroeste 18 Oeste 0 -- -- 50
2018-01-09 23:00:00 10.9 5 Noroeste 19 Oeste 0 -- -- 48
2018-01-09 22:00:00 10.7 12 Oeste 25 Oeste 0 -- -- 48
2018-01-09 21:00:00 10.9 16 Oeste 27 Oeste 0 -- -- 47
2018-01-09 20:00:00 11.3 10 Oeste 19 Oeste 0 -- -- 47
2018-01-09 19:00:00 11.6 7 Oeste 20 Oeste 0 -- -- 48
2018-01-09 18:00:00 12.1 8 Oeste 25 Oeste 0 -- -- 49
2018-01-09 17:00:00 12.7 13 Oeste 24 Oeste 0 -- -- 57
2018-01-09 16:00:00 13.4 15 Sudoeste 24 Sudoeste 0 -- -- 45
2018-01-09 15:00:00 13.7 11 Oeste 19 Oeste 0 -- -- 43
2018-01-09 14:00:00 14.2 11 Oeste 22 Oeste 0 -- -- 42
2018-01-09 13:00:00 13.2 10 Noroeste 21 Noroeste 0 -- -- 43
2018-01-09 12:00:00 12.2 10 Noroeste 20 Noroeste 0 -- -- 45
2018-01-09 11:00:00 10.1 14 Oeste 22 Oeste 0 -- -- 53
2018-01-09 10:00:00 9 10 Oeste 17 Oeste 0 -- -- 60
2018-01-09 09:00:00 8.3 3 Oeste 34 Noroeste 0 -- -- 63
2018-01-09 08:00:00 7.3 10 Noroeste 24 Noroeste 0 -- -- 69
2018-01-09 07:00:00 6.8 9 Sudoeste 15 Oeste 0 -- -- 75
2018-01-09 06:00:00 6.8 3 Sudoeste 23 Oeste 0 -- -- 76
2018-01-09 05:00:00 6.8 9 Noroeste 28 Noroeste 0 -- -- 75
2018-01-09 04:00:00 7.3 4 Oeste 26 Oeste 0 -- -- 74
2018-01-09 03:00:00 7.6 10 Noroeste 25 Oeste 0 -- -- 73
2018-01-09 02:00:00 8 9 Oeste 26 Oeste 0 -- -- 72
2018-01-09 01:00:00 8.5 8 Oeste 13 Oeste 0 -- -- 71
2018-01-09 00:00:00 9.4 0 Calma 15 Oeste 0 -- -- 67
2018-01-08 23:00:00 9.7 6 Noroeste 15 Noroeste 0 -- -- 66
2018-01-08 22:00:00 9.9 5 Norte 17 Noroeste 0 -- -- 65
2018-01-08 21:00:00 10.7 3 Norte 9 Norte 0 -- -- 64
2018-01-08 20:00:00 10.8 3 Noroeste 19 Noroeste 0 -- -- 63
2018-01-08 19:00:00 11.5 10 Noroeste 18 Noroeste 0 -- -- 63
2018-01-08 18:00:00 12.2 7 Oeste 15 Oeste 0 -- -- 62
2018-01-08 17:00:00 13 4 Sur 18 Sudoeste 0 -- -- 62
2018-01-08 16:00:00 14.2 0 Calma 12 Noroeste 0 -- -- 56
2018-01-08 15:00:00 14 5 Norte 15 Nordeste 0 -- -- 58
2018-01-08 14:00:00 12.7 11 Norte 21 Norte 0 -- -- 62
2018-01-08 13:00:00 12 10 Norte 19 Norte 0 -- -- 65
2018-01-08 12:00:00 10.7 10 Norte 23 Norte 0 -- -- 70
2018-01-08 11:00:00 9.9 5 Norte 15 Norte 0 -- -- 74
2018-01-08 10:00:00 8.1 8 Norte 17 Norte 0 -- -- 81
2018-01-08 09:00:00 7.1 8 Norte 17 Norte 0 -- -- 83
2018-01-08 08:00:00 7.8 11 Norte 19 Norte 0 -- -- 82
2018-01-08 07:00:00 7.2 10 Norte 18 Norte 0 -- -- 85
2018-01-08 06:00:00 8 6 Norte 18 Noroeste 0 -- -- 83
2018-01-08 05:00:00 7.8 10 Norte 18 Norte 0 -- -- 86
2018-01-08 04:00:00 8.1 9 Norte 17 Norte 0 -- -- 87
2018-01-08 03:00:00 7.8 9 Norte 14 Norte 0 -- -- 89
2018-01-08 02:00:00 8.5 10 Norte 15 Norte 0 -- -- 87
2018-01-08 01:00:00 8.4 8 Norte 14 Norte 0 -- -- 86
2018-01-08 00:00:00 9.1 8 Norte 11 Norte 0 -- -- 83
2018-01-07 23:00:00 9.6 5 Norte 8 Norte 0 -- -- 83
2018-01-07 22:00:00 10.6 5 Oeste 9 Oeste 0 -- -- 77
2018-01-07 21:00:00 10.5 6 Noroeste 15 Oeste 0 -- -- 76
2018-01-07 20:00:00 10.3 6 Oeste 14 Oeste 0 -- -- 78
2018-01-07 19:00:00 10.3 9 Oeste 17 Noroeste 0 -- -- 82
2018-01-07 18:00:00 9.5 10 Noroeste 25 Norte 0 -- -- 86
2018-01-07 17:00:00 9.5 15 Norte 29 Norte 0 -- -- 87
2018-01-07 16:00:00 10.1 10 Norte 29 Nordeste 1.5 -- -- 89
2018-01-07 15:00:00 10.5 10 Sudoeste 37 Nordeste 0.5 -- -- 86
2018-01-07 14:00:00 10.7 14 Este 28 Este 1.1 -- -- 89
2018-01-07 13:00:00 11.3 16 Este 21 Este 0.6 -- -- 80
2018-01-07 12:00:00 11.7 13 Sur 35 Sur 0.2 -- -- 78
2018-01-07 11:00:00 12.3 19 Sur 54 Sudoeste 0.1 -- -- 72
2018-01-07 10:00:00 12 25 Sudoeste 45 Sudoeste 0.6 -- -- 83
2018-01-07 09:00:00 14.6 22 Sur 30 Sur 0 -- -- 72
2018-01-07 08:00:00 14.4 16 Sur 28 Sudoeste 0 -- -- 74
2018-01-07 07:00:00 14.4 23 Sur 29 Sur 0 -- -- 73
2018-01-07 06:00:00 14.4 22 Sudoeste 33 Sudoeste 0 -- -- 74
2018-01-07 05:00:00 14.6 24 Sur 30 Sudoeste 0 -- -- 76
2018-01-07 04:00:00 14.8 21 Sur 33 Sur 0 -- -- 74
2018-01-07 03:00:00 14.6 8 Este 20 Nordeste 0.4 -- -- 89
2018-01-07 02:00:00 14.9 8 Sudeste 31 Este 0 -- -- 90
2018-01-07 01:00:00 14.6 19 Este 42 Este 0 -- -- 93
2018-01-07 00:00:00 14.1 35 Este 50 Este 0 -- -- 97
2018-01-06 23:00:00 14 41 Este 60 Este 0 -- -- 97
2018-01-06 22:00:00 13.9 36 Este 57 Este 0 -- -- 96
2018-01-06 21:00:00 13.9 45 Este 60 Este 0 -- -- 97
2018-01-06 20:00:00 13.6 46 Este 68 Este 0 -- -- 97
2018-01-06 19:00:00 13.8 47 Este 65 Este 0 -- -- 94
2018-01-06 18:00:00 13.8 42 Este 51 Este 0 -- -- 97
2018-01-06 17:00:00 14 37 Este 45 Este 0 -- -- 93
2018-01-06 16:00:00 14.1 25 Este 33 Este 0 -- -- 91
2018-01-06 15:00:00 14 26 Este 31 Este 0 -- -- 94
2018-01-06 14:00:00 13.7 23 Este 27 Este 0 -- -- 91
2018-01-06 13:00:00 14.3 12 Este 16 Este 0 -- -- 85
2018-01-06 12:00:00 14.5 8 Este 12 Este 0 -- -- 73
2018-01-06 11:00:00 12.8 7 Norte 15 Norte 0 -- -- 74
2018-01-06 10:00:00 11.7 9 Norte 17 Norte 0 -- -- 73
2018-01-06 09:00:00 10.7 10 Norte 16 Norte 0 -- -- 74
2018-01-06 08:00:00 10.5 11 Norte 17 Norte 0 -- -- 73
2018-01-06 07:00:00 10.1 11 Norte 15 Norte 0 -- -- 72
2018-01-06 06:00:00 10.4 8 Norte 15 Norte 0 -- -- 70
2018-01-06 05:00:00 11.1 12 Norte 18 Norte 0 -- -- 68
2018-01-06 04:00:00 10.7 10 Norte 14 Norte 0 -- -- 68
2018-01-06 03:00:00 11.5 9 Norte 11 Norte 0 -- -- 66
2018-01-06 02:00:00 12.1 7 Norte 13 Norte 0 -- -- 65
2018-01-06 01:00:00 13.7 5 Norte 9 Oeste 0 -- -- 62
2018-01-06 00:00:00 14.4 7 Oeste 17 Oeste 0 -- -- 61
2018-01-05 23:00:00 14.5 6 Oeste 17 Oeste 0 -- -- 63
2018-01-05 22:00:00 14.6 6 Sudoeste 18 Oeste 0 -- -- 61
2018-01-05 21:00:00 16 5 Noroeste 16 Noroeste 0 -- -- 51
2018-01-05 20:00:00 16.5 8 Noroeste 27 Oeste 0 -- -- 51
2018-01-05 19:00:00 16.6 8 Oeste 23 Oeste 0 -- -- 51
2018-01-05 18:00:00 17.2 11 Oeste 31 Oeste 0 -- -- 50
2018-01-05 17:00:00 17.9 13 Oeste 35 Oeste 0 -- -- 49
2018-01-05 16:00:00 18.5 15 Oeste 36 Oeste 0 -- -- 48
2018-01-05 15:00:00 19 18 Oeste 41 Oeste 0 -- -- 49
2018-01-05 14:00:00 18.5 20 Oeste 41 Noroeste 0 -- -- 51
2018-01-05 13:00:00 17.8 25 Noroeste 48 Oeste 0 -- -- 52
2018-01-05 12:00:00 17.5 18 Noroeste 44 Noroeste 0 -- -- 55
2018-01-05 11:00:00 16.1 24 Noroeste 48 Noroeste 0 -- -- 57
2018-01-05 10:00:00 16 19 Oeste 33 Noroeste 0 -- -- 59
2018-01-05 09:00:00 14.8 14 Oeste 25 Oeste 0 -- -- 61
2018-01-05 08:00:00 14.2 9 Oeste 16 Oeste 0 -- -- 62
2018-01-05 07:00:00 14.3 5 Sudoeste 15 Oeste 0 -- -- 61
2018-01-05 06:00:00 14.8 10 Oeste 35 Oeste 0 -- -- 59
2018-01-05 05:00:00 15.5 14 Oeste 32 Oeste 0 -- -- 58
2018-01-05 04:00:00 16 15 Oeste 38 Oeste 0 -- -- 57
2018-01-05 03:00:00 16 18 Oeste 33 Oeste 0 -- -- 57
2018-01-05 02:00:00 16.1 10 Oeste 30 Oeste 0 -- -- 57
2018-01-05 01:00:00 16.4 17 Oeste 31 Oeste 0 -- -- 56
2018-01-05 00:00:00 17.1 14 Oeste 25 Oeste 0 -- -- 56
2018-01-04 23:00:00 17.7 14 Noroeste 30 Oeste 0 -- -- 56
2018-01-04 22:00:00 18.5 15 Noroeste 28 Noroeste 0 -- -- 56
2018-01-04 21:00:00 18.5 15 Noroeste 31 Noroeste 0 -- -- 56
2018-01-04 20:00:00 19.1 8 Noroeste 28 Noroeste 0 -- -- 54
2018-01-04 19:00:00 19.5 17 Noroeste 39 Noroeste 0 -- -- 53
2018-01-04 18:00:00 20 19 Noroeste 39 Noroeste 0 -- -- 52
2018-01-04 17:00:00 20.6 17 Noroeste 39 Noroeste 0 -- -- 50
2018-01-04 16:00:00 21.4 19 Noroeste 38 Noroeste 0 -- -- 49
2018-01-04 15:00:00 21.4 16 Noroeste 35 Noroeste 0 -- -- 52
2018-01-04 14:00:00 21.5 18 Noroeste 41 Noroeste 0 -- -- 52
2018-01-04 13:00:00 20.7 20 Noroeste 41 Noroeste 0 -- -- 54
2018-01-04 12:00:00 20.5 21 Noroeste 56 Noroeste 0 -- -- 56
2018-01-04 11:00:00 19.5 9 Noroeste 35 Oeste 0 -- -- 60
2018-01-04 10:00:00 19.1 4 Sur 37 Sudoeste 0 -- -- 61
2018-01-04 09:00:00 17.7 7 Norte 42 Noroeste 0 -- -- 65
2018-01-04 08:00:00 17.7 18 Noroeste 43 Noroeste 0 -- -- 65
2018-01-04 07:00:00 17.9 15 Noroeste 52 Norte 0 -- -- 65
2018-01-04 06:00:00 18 28 Noroeste 72 Noroeste 0 -- -- 66
2018-01-04 05:00:00 18 28 Noroeste 59 Noroeste 0 -- -- 66
2018-01-04 04:00:00 18.1 25 Noroeste 54 Noroeste 0 -- -- 65
2018-01-04 03:00:00 18.4 19 Noroeste 63 Oeste 0 -- -- 65
2018-01-04 02:00:00 18.7 30 Noroeste 65 Oeste 0 -- -- 65
2018-01-04 01:00:00 18.4 32 Noroeste 66 Noroeste 0 -- -- 65
2018-01-04 00:00:00 18.7 31 Noroeste 64 Noroeste 0 -- -- 63
2018-01-03 23:00:00 18.8 26 Noroeste 59 Noroeste 0 -- -- 63
2018-01-03 22:00:00 19 15 Noroeste 44 Noroeste 0 -- -- 62
2018-01-03 21:00:00 19.5 26 Noroeste 58 Oeste 0 -- -- 59
2018-01-03 20:00:00 20 26 Noroeste 54 Noroeste 0 -- -- 55
2018-01-03 19:00:00 20.4 21 Noroeste 43 Noroeste 0 -- -- 50
2018-01-03 18:00:00 20.9 12 Oeste 41 Noroeste 0 -- -- 48
2018-01-03 17:00:00 21.2 18 Oeste 44 Noroeste 0 -- -- 50
2018-01-03 16:00:00 21.6 16 Noroeste 48 Noroeste 0 -- -- 54
2018-01-03 15:00:00 20.7 16 Oeste 44 Noroeste 0 -- -- 58
2018-01-03 14:00:00 20.5 9 Oeste 55 Oeste 0 -- -- 60
2018-01-03 13:00:00 19 31 Noroeste 62 Noroeste 0 -- -- 63
2018-01-03 12:00:00 18.5 30 Noroeste 61 Oeste 0 -- -- 65
2018-01-03 11:00:00 17.5 30 Noroeste 61 Noroeste 0 -- -- 68
2018-01-03 10:00:00 16.4 13 Noroeste 31 Noroeste 0 -- -- 69
2018-01-03 09:00:00 15.6 8 Este 24 Oeste 0 -- -- 72
2018-01-03 08:00:00 15.2 12 Noroeste 30 Noroeste 0 -- -- 72
2018-01-03 07:00:00 14.6 3 Norte 13 Oeste 0 -- -- 74
2018-01-03 06:00:00 14.6 3 Este 13 Sur 0 -- -- 74
2018-01-03 05:00:00 14.6 4 Este 12 Este 0 -- -- 74
2018-01-03 04:00:00 15.2 7 Noroeste 21 Noroeste 0 -- -- 71
2018-01-03 03:00:00 15.1 8 Norte 26 Norte 0 -- -- 71
2018-01-03 02:00:00 15.3 11 Norte 25 Noroeste 0 -- -- 71
2018-01-03 01:00:00 15.1 4 Este 24 Noroeste 0 -- -- 72
2018-01-03 00:00:00 15 8 Sudeste 26 Norte 0 -- -- 71
2018-01-02 23:00:00 15.5 10 Noroeste 23 Noroeste 0 -- -- 69
2018-01-02 22:00:00 15.7 5 Oeste 18 Noroeste 0 -- -- 68
2018-01-02 21:00:00 16.1 6 Sudoeste 26 Noroeste 0 -- -- 66
2018-01-02 20:00:00 16.4 9 Oeste 27 Sudoeste 0 -- -- 65
2018-01-02 19:00:00 16.6 9 Oeste 29 Oeste 0 -- -- 64
2018-01-02 18:00:00 16.7 10 Oeste 28 Oeste 0 -- -- 62
2018-01-02 17:00:00 17.1 9 Noroeste 31 Oeste 0 -- -- 60
2018-01-02 16:00:00 17.4 14 Noroeste 30 Oeste 0 -- -- 58
2018-01-02 15:00:00 16.9 18 Noroeste 33 Noroeste 0 -- -- 59
2018-01-02 14:00:00 16.4 7 Noroeste 21 Noroeste 0 -- -- 58
2018-01-02 13:00:00 14.8 9 Noroeste 19 Norte 0 -- -- 61
2018-01-02 12:00:00 12.8 6 Nordeste 13 Nordeste 0 -- -- 64
2018-01-02 11:00:00 11.6 10 Este 18 Norte 0 -- -- 66
2018-01-02 10:00:00 12.1 10 Noroeste 23 Oeste 0 -- -- 65
2018-01-02 09:00:00 12.7 9 Noroeste 37 Noroeste 0 -- -- 63
2018-01-02 08:00:00 12.2 19 Oeste 28 Oeste 0 -- -- 61
2018-01-02 07:00:00 12.2 7 Noroeste 35 Oeste 0 -- -- 61
2018-01-02 06:00:00 12.3 11 Oeste 24 Oeste 0 -- -- 62
2018-01-02 05:00:00 12.2 8 Sur 25 Sudoeste 0 -- -- 66
2018-01-02 04:00:00 12.4 5 Oeste 21 Oeste 0 -- -- 66
2018-01-02 03:00:00 12 5 Norte 13 Sudoeste 0 -- -- 64
2018-01-02 02:00:00 12.5 5 Noroeste 19 Sudeste 0 -- -- 62
2018-01-02 01:00:00 12.9 13 Sudeste 19 Este 0 -- -- 64
2018-01-02 00:00:00 13.2 9 Noroeste 40 Noroeste 0 -- -- 61
2018-01-01 23:00:00 13.2 22 Noroeste 49 Noroeste 0 -- -- 60
2018-01-01 22:00:00 14.1 21 Noroeste 50 Norte 0 -- -- 56
2018-01-01 21:00:00 14.9 17 Noroeste 42 Noroeste 0 -- -- 51
2018-01-01 20:00:00 15.3 22 Noroeste 49 Noroeste 0 -- -- 48
2018-01-01 19:00:00 14.6 18 Oeste 42 Oeste 0 -- -- 48
2018-01-01 18:00:00 14.5 19 Oeste 42 Oeste 0 -- -- 48
2018-01-01 17:00:00 14.7 17 Oeste 48 Oeste 0 -- -- 47
2018-01-01 16:00:00 15.1 25 Oeste 49 Oeste 0 -- -- 47
2018-01-01 15:00:00 15 19 Oeste 39 Oeste 0 -- -- 48
2018-01-01 14:00:00 15 15 Oeste 43 Oeste 0 -- -- 51
2018-01-01 13:00:00 14.7 7 Oeste 42 Noroeste 0 -- -- 48
2018-01-01 12:00:00 13.2 22 Noroeste 65 Noroeste 0 -- -- 51
2018-01-01 11:00:00 12.2 12 Noroeste 38 Noroeste 0 -- -- 53
2018-01-01 10:00:00 11.4 15 Noroeste 33 Noroeste 0 -- -- 55
2018-01-01 09:00:00 10.6 5 Norte 24 Noroeste 0 -- -- 58
2018-01-01 08:00:00 10.4 11 Noroeste 42 Noroeste 0 -- -- 58
2018-01-01 07:00:00 11.1 19 Noroeste 46 Oeste 0 -- -- 57
2018-01-01 06:00:00 11.2 19 Noroeste 49 Noroeste 0 -- -- 57
2018-01-01 05:00:00 11.1 21 Noroeste 48 Noroeste 0 -- -- 58
2018-01-01 04:00:00 11.4 22 Noroeste 42 Noroeste 0 -- -- 59
2018-01-01 03:00:00 11.7 22 Noroeste 42 Noroeste 0 -- -- 60
2018-01-01 02:00:00 12.4 18 Noroeste 43 Oeste 0 -- -- 59
2018-01-01 01:00:00 14.6 14 Noroeste 39 Noroeste 0 -- -- 60
2018-01-01 00:00:00 15.3 17 Noroeste 56 Oeste 0 -- -- 58
2017-12-31 23:00:00 16 15 Oeste 36 Oeste 0 -- -- 55
2017-12-31 22:00:00 15.7 7 Oeste 27 Noroeste 0 -- -- 55
2017-12-31 21:00:00 15.9 18 Noroeste 37 Noroeste 0 -- -- 55
2017-12-31 20:00:00 15.8 16 Oeste 37 Oeste 0 -- -- 55
2017-12-31 19:00:00 15.9 16 Noroeste 39 Noroeste 0 -- -- 56
2017-12-31 18:00:00 16 14 Noroeste 35 Noroeste 0 -- -- 55
2017-12-31 17:00:00 16.9 14 Noroeste 32 Noroeste 0 -- -- 54
2017-12-31 16:00:00 17.9 15 Noroeste 28 Noroeste 0 -- -- 55
2017-12-31 15:00:00 18.1 6 Oeste 17 Noroeste 0 -- -- 56
2017-12-31 14:00:00 18.7 4 Sur 13 Oeste 0 -- -- 57
2017-12-31 13:00:00 16.3 10 Oeste 14 Oeste 0 -- -- 62
2017-12-31 12:00:00 16.4 8 Oeste 14 Oeste 0 -- -- 61
2017-12-31 11:00:00 15.1 7 Oeste 15 Oeste 0 -- -- 65
2017-12-31 10:00:00 14.2 7 Oeste 15 Oeste 0 -- -- 69
2017-12-31 09:00:00 13.4 8 Oeste 17 Oeste 0 -- -- 71
2017-12-31 08:00:00 12.9 11 Oeste 23 Oeste 0 -- -- 73
2017-12-31 07:00:00 13.3 15 Oeste 22 Oeste 0 -- -- 73
2017-12-31 06:00:00 12 6 Noroeste 15 Noroeste 0 -- -- 77
2017-12-31 05:00:00 13.1 9 Oeste 19 Noroeste 0 -- -- 74
2017-12-31 04:00:00 10.5 8 Norte 15 Norte 0 -- -- 83
2017-12-31 03:00:00 11.2 10 Norte 18 Norte 0 -- -- 81
2017-12-31 02:00:00 12.6 12 Norte 17 Norte 0 -- -- 78
2017-12-31 01:00:00 13.6 9 Noroeste 13 Noroeste 0 -- -- 75